sensor_id;sensor_type;location;lat;lon;timestamp;temperature;humidity
1468;DHT22;727;48.892;9.544;2022-11-20T00:01:05;6.30;99.90
1468;DHT22;727;48.892;9.544;2022-11-20T00:03:32;6.30;99.90
1468;DHT22;727;48.892;9.544;2022-11-20T00:06:01;6.30;99.90
1468;DHT22;727;48.892;9.544;2022-11-20T00:08:27;6.30;99.90
1468;DHT22;727;48.892;9.544;2022-11-20T00:10:54;6.20;99.90
1468;DHT22;727;48.892;9.544;2022-11-20T00:13:21;6.20;99.90
1468;DHT22;727;48.892;9.544;2022-11-20T00:15:48;6.20;99.90
1468;DHT22;727;48.892;9.544;2022-11-20T00:18:14;6.20;99.90
1468;DHT22;727;48.892;9.544;2022-11-20T00:20:41;6.20;99.90
1468;DHT22;727;48.892;9.544;2022-11-20T00:23:09;6.20;99.90
1468;DHT22;727;48.892;9.544;2022-11-20T00:25:36;6.20;99.90
1468;DHT22;727;48.892;9.544;2022-11-20T00:28:03;6.20;99.90
1468;DHT22;727;48.892;9.544;2022-11-20T00:30:29;6.20;99.90
1468;DHT22;727;48.892;9.544;2022-11-20T00:32:56;6.20;99.90
1468;DHT22;727;48.892;9.544;2022-11-20T00:35:23;6.20;99.90
1468;DHT22;727;48.892;9.544;2022-11-20T00:37:50;6.20;99.90
1468;DHT22;727;48.892;9.544;2022-11-20T00:40:18;6.20;99.90
1468;DHT22;727;48.892;9.544;2022-11-20T00:42:44;6.10;99.90
1468;DHT22;727;48.892;9.544;2022-11-20T00:45:11;6.20;99.90
1468;DHT22;727;48.892;9.544;2022-11-20T00:47:38;6.20;99.90
1468;DHT22;727;48.892;9.544;2022-11-20T00:50:05;6.10;99.90
1468;DHT22;727;48.892;9.544;2022-11-20T00:52:32;6.10;99.90
1468;DHT22;727;48.892;9.544;2022-11-20T00:54:58;6.10;99.90
1468;DHT22;727;48.892;9.544;2022-11-20T00:57:26;6.10;99.90
1468;DHT22;727;48.892;9.544;2022-11-20T00:59:53;6.10;99.90
1468;DHT22;727;48.892;9.544;2022-11-20T01:02:20;6.10;99.90
1468;DHT22;727;48.892;9.544;2022-11-20T01:04:46;6.10;99.90
1468;DHT22;727;48.892;9.544;2022-11-20T01:07:13;6.10;99.90
1468;DHT22;727;48.892;9.544;2022-11-20T01:09:40;6.10;99.90
1468;DHT22;727;48.892;9.544;2022-11-20T01:12:06;6.10;99.90
1468;DHT22;727;48.892;9.544;2022-11-20T01:14:34;6.10;99.90
1468;DHT22;727;48.892;9.544;2022-11-20T01:17:01;6.10;99.90
1468;DHT22;727;48.892;9.544;2022-11-20T01:19:28;6.10;99.90
1468;DHT22;727;48.892;9.544;2022-11-20T01:21:54;6.10;99.90
1468;DHT22;727;48.892;9.544;2022-11-20T01:24:22;6.10;99.90
1468;DHT22;727;48.892;9.544;2022-11-20T01:26:50;6.10;99.90
1468;DHT22;727;48.892;9.544;2022-11-20T01:29:19;6.10;99.90
1468;DHT22;727;48.892;9.544;2022-11-20T01:31:48;6.10;99.90
1468;DHT22;727;48.892;9.544;2022-11-20T01:34:17;6.20;99.90
1468;DHT22;727;48.892;9.544;2022-11-20T01:36:45;6.20;99.90
1468;DHT22;727;48.892;9.544;2022-11-20T01:39:14;6.10;99.90
1468;DHT22;727;48.892;9.544;2022-11-20T01:41:42;6.10;99.90
1468;DHT22;727;48.892;9.544;2022-11-20T01:44:50;6.10;99.90
1468;DHT22;727;48.892;9.544;2022-11-20T01:47:21;6.10;99.90
1468;DHT22;727;48.892;9.544;2022-11-20T01:49:52;6.10;99.90
1468;DHT22;727;48.892;9.544;2022-11-20T01:52:23;6.10;99.90
1468;DHT22;727;48.892;9.544;2022-11-20T01:54:53;6.10;99.90
1468;DHT22;727;48.892;9.544;2022-11-20T01:57:22;6.10;99.90
1468;DHT22;727;48.892;9.544;2022-11-20T01:59:53;6.10;99.90
1468;DHT22;727;48.892;9.544;2022-11-20T02:02:22;6.10;99.90
1468;DHT22;727;48.892;9.544;2022-11-20T02:04:51;6.10;99.90
1468;DHT22;727;48.892;9.544;2022-11-20T02:07:19;6.10;99.90
1468;DHT22;727;48.892;9.544;2022-11-20T02:09:46;6.10;99.90
1468;DHT22;727;48.892;9.544;2022-11-20T02:12:13;6.10;99.90
1468;DHT22;727;48.892;9.544;2022-11-20T02:14:54;6.10;99.90
1468;DHT22;727;48.892;9.544;2022-11-20T02:17:22;6.10;99.90
1468;DHT22;727;48.892;9.544;2022-11-20T02:19:50;6.00;99.90
1468;DHT22;727;48.892;9.544;2022-11-20T02:22:20;6.00;99.90
1468;DHT22;727;48.892;9.544;2022-11-20T02:24:50;6.00;99.90
1468;DHT22;727;48.892;9.544;2022-11-20T02:27:17;6.00;99.90
1468;DHT22;727;48.892;9.544;2022-11-20T02:29:47;6.10;99.90
1468;DHT22;727;48.892;9.544;2022-11-20T02:32:21;6.10;99.90
1468;DHT22;727;48.892;9.544;2022-11-20T02:34:48;6.10;99.90
1468;DHT22;727;48.892;9.544;2022-11-20T02:37:15;6.10;99.90
1468;DHT22;727;48.892;9.544;2022-11-20T02:39:44;6.10;99.90
1468;DHT22;727;48.892;9.544;2022-11-20T02:42:12;6.10;99.90
1468;DHT22;727;48.892;9.544;2022-11-20T02:44:39;6.10;99.90
1468;DHT22;727;48.892;9.544;2022-11-20T02:47:05;6.10;99.90
1468;DHT22;727;48.892;9.544;2022-11-20T02:49:32;6.10;99.90
1468;DHT22;727;48.892;9.544;2022-11-20T02:51:59;6.10;99.90
1468;DHT22;727;48.892;9.544;2022-11-20T02:54:26;6.20;99.90
1468;DHT22;727;48.892;9.544;2022-11-20T02:56:53;6.20;99.90
1468;DHT22;727;48.892;9.544;2022-11-20T02:59:21;6.20;99.90
1468;DHT22;727;48.892;9.544;2022-11-20T03:01:47;6.20;99.90
1468;DHT22;727;48.892;9.544;2022-11-20T03:04:14;6.20;99.90
1468;DHT22;727;48.892;9.544;2022-11-20T03:06:41;6.20;99.90
1468;DHT22;727;48.892;9.544;2022-11-20T03:09:08;6.20;99.90
1468;DHT22;727;48.892;9.544;2022-11-20T03:11:34;6.20;99.90
1468;DHT22;727;48.892;9.544;2022-11-20T03:14:02;6.10;99.90
1468;DHT22;727;48.892;9.544;2022-11-20T03:16:31;6.10;99.90
1468;DHT22;727;48.892;9.544;2022-11-20T03:18:58;6.20;99.90
1468;DHT22;727;48.892;9.544;2022-11-20T03:21:25;6.10;99.90
1468;DHT22;727;48.892;9.544;2022-11-20T03:23:53;6.20;99.90
1468;DHT22;727;48.892;9.544;2022-11-20T03:26:21;6.20;99.90
1468;DHT22;727;48.892;9.544;2022-11-20T03:28:50;6.20;99.90
1468;DHT22;727;48.892;9.544;2022-11-20T03:31:18;6.20;99.90
1468;DHT22;727;48.892;9.544;2022-11-20T03:33:47;6.20;99.90
1468;DHT22;727;48.892;9.544;2022-11-20T03:36:15;6.20;99.90
1468;DHT22;727;48.892;9.544;2022-11-20T03:38:42;6.10;99.90
1468;DHT22;727;48.892;9.544;2022-11-20T03:41:10;6.20;99.90
1468;DHT22;727;48.892;9.544;2022-11-20T03:43:37;6.20;99.90
1468;DHT22;727;48.892;9.544;2022-11-20T03:46:05;6.20;99.90
1468;DHT22;727;48.892;9.544;2022-11-20T03:48:32;6.20;99.90
1468;DHT22;727;48.892;9.544;2022-11-20T03:51:14;6.20;99.90
1468;DHT22;727;48.892;9.544;2022-11-20T03:53:42;6.20;99.90
1468;DHT22;727;48.892;9.544;2022-11-20T03:56:10;6.20;99.90
1468;DHT22;727;48.892;9.544;2022-11-20T03:58:38;6.20;99.90
1468;DHT22;727;48.892;9.544;2022-11-20T04:01:06;6.20;99.90
1468;DHT22;727;48.892;9.544;2022-11-20T04:03:34;6.20;99.90
1468;DHT22;727;48.892;9.544;2022-11-20T04:06:03;6.20;99.90
1468;DHT22;727;48.892;9.544;2022-11-20T04:08:31;6.20;99.90
1468;DHT22;727;48.892;9.544;2022-11-20T04:11:08;6.20;99.90
1468;DHT22;727;48.892;9.544;2022-11-20T04:13:35;6.20;99.90
1468;DHT22;727;48.892;9.544;2022-11-20T04:16:02;6.20;99.90
1468;DHT22;727;48.892;9.544;2022-11-20T04:18:29;6.20;99.90
1468;DHT22;727;48.892;9.544;2022-11-20T04:20:56;6.20;99.90
1468;DHT22;727;48.892;9.544;2022-11-20T04:23:23;6.20;99.90
1468;DHT22;727;48.892;9.544;2022-11-20T04:25:51;6.10;99.90
1468;DHT22;727;48.892;9.544;2022-11-20T04:28:18;6.10;99.90
1468;DHT22;727;48.892;9.544;2022-11-20T04:30:44;6.10;99.90
1468;DHT22;727;48.892;9.544;2022-11-20T04:33:11;6.10;99.90
1468;DHT22;727;48.892;9.544;2022-11-20T04:35:38;6.10;99.90
1468;DHT22;727;48.892;9.544;2022-11-20T04:38:04;6.10;99.90
1468;DHT22;727;48.892;9.544;2022-11-20T04:40:31;6.20;99.90
1468;DHT22;727;48.892;9.544;2022-11-20T04:43:00;6.20;99.90
1468;DHT22;727;48.892;9.544;2022-11-20T04:45:26;6.20;99.90
1468;DHT22;727;48.892;9.544;2022-11-20T04:47:53;6.10;99.90
1468;DHT22;727;48.892;9.544;2022-11-20T04:50:20;6.20;99.90
1468;DHT22;727;48.892;9.544;2022-11-20T04:52:46;6.20;99.90
1468;DHT22;727;48.892;9.544;2022-11-20T04:55:13;6.10;99.90
1468;DHT22;727;48.892;9.544;2022-11-20T04:57:40;6.20;99.90
1468;DHT22;727;48.892;9.544;2022-11-20T05:00:09;6.20;99.90
1468;DHT22;727;48.892;9.544;2022-11-20T05:02:36;6.20;99.90
1468;DHT22;727;48.892;9.544;2022-11-20T05:05:03;6.20;99.90
1468;DHT22;727;48.892;9.544;2022-11-20T05:07:31;6.20;99.90
1468;DHT22;727;48.892;9.544;2022-11-20T05:09:57;6.20;99.90
1468;DHT22;727;48.892;9.544;2022-11-20T05:12:24;6.20;99.90
1468;DHT22;727;48.892;9.544;2022-11-20T05:14:51;6.20;99.90
1468;DHT22;727;48.892;9.544;2022-11-20T05:17:19;6.20;99.90
1468;DHT22;727;48.892;9.544;2022-11-20T05:19:45;6.10;99.90
1468;DHT22;727;48.892;9.544;2022-11-20T05:22:12;6.10;99.90
1468;DHT22;727;48.892;9.544;2022-11-20T05:24:39;6.20;99.90
1468;DHT22;727;48.892;9.544;2022-11-20T05:27:05;6.20;99.90
1468;DHT22;727;48.892;9.544;2022-11-20T05:29:32;6.20;99.90
1468;DHT22;727;48.892;9.544;2022-11-20T05:31:59;6.20;99.90
1468;DHT22;727;48.892;9.544;2022-11-20T05:34:27;6.10;99.90
1468;DHT22;727;48.892;9.544;2022-11-20T05:36:54;6.10;99.90
1468;DHT22;727;48.892;9.544;2022-11-20T05:39:21;6.20;99.90
1468;DHT22;727;48.892;9.544;2022-11-20T05:41:48;6.10;99.90
1468;DHT22;727;48.892;9.544;2022-11-20T05:44:35;6.20;99.90
1468;DHT22;727;48.892;9.544;2022-11-20T05:47:01;6.10;99.90
1468;DHT22;727;48.892;9.544;2022-11-20T05:49:29;6.20;99.90
1468;DHT22;727;48.892;9.544;2022-11-20T05:51:56;6.10;99.90
1468;DHT22;727;48.892;9.544;2022-11-20T05:54:23;6.10;99.90
1468;DHT22;727;48.892;9.544;2022-11-20T05:56:50;6.10;99.90
1468;DHT22;727;48.892;9.544;2022-11-20T05:59:16;6.20;99.90
1468;DHT22;727;48.892;9.544;2022-11-20T06:01:43;6.20;99.90
1468;DHT22;727;48.892;9.544;2022-11-20T06:04:10;6.20;99.90
1468;DHT22;727;48.892;9.544;2022-11-20T06:06:38;6.20;99.90
1468;DHT22;727;48.892;9.544;2022-11-20T06:09:04;6.20;99.90
1468;DHT22;727;48.892;9.544;2022-11-20T06:11:31;6.20;99.90
1468;DHT22;727;48.892;9.544;2022-11-20T06:13:58;6.20;99.90
1468;DHT22;727;48.892;9.544;2022-11-20T06:16:25;6.20;99.90
1468;DHT22;727;48.892;9.544;2022-11-20T06:18:52;6.20;99.90
1468;DHT22;727;48.892;9.544;2022-11-20T06:21:20;6.20;99.90
1468;DHT22;727;48.892;9.544;2022-11-20T06:23:50;6.20;99.90
1468;DHT22;727;48.892;9.544;2022-11-20T06:26:18;6.20;99.90
1468;DHT22;727;48.892;9.544;2022-11-20T06:28:45;6.10;99.90
1468;DHT22;727;48.892;9.544;2022-11-20T06:31:15;6.20;99.90
1468;DHT22;727;48.892;9.544;2022-11-20T06:33:43;6.20;99.90
1468;DHT22;727;48.892;9.544;2022-11-20T06:36:10;6.20;99.90
1468;DHT22;727;48.892;9.544;2022-11-20T06:38:37;6.20;99.90
1468;DHT22;727;48.892;9.544;2022-11-20T06:41:06;6.20;99.90
1468;DHT22;727;48.892;9.544;2022-11-20T06:43:33;6.20;99.90
1468;DHT22;727;48.892;9.544;2022-11-20T06:45:59;6.30;99.90
1468;DHT22;727;48.892;9.544;2022-11-20T06:48:27;6.20;99.90
1468;DHT22;727;48.892;9.544;2022-11-20T06:50:54;6.20;99.90
1468;DHT22;727;48.892;9.544;2022-11-20T06:53:21;6.20;99.90
1468;DHT22;727;48.892;9.544;2022-11-20T06:55:49;6.20;99.90
1468;DHT22;727;48.892;9.544;2022-11-20T06:58:18;6.20;99.90
1468;DHT22;727;48.892;9.544;2022-11-20T07:00:44;6.20;99.90
1468;DHT22;727;48.892;9.544;2022-11-20T07:03:12;6.20;99.90
1468;DHT22;727;48.892;9.544;2022-11-20T07:05:39;6.30;99.90
1468;DHT22;727;48.892;9.544;2022-11-20T07:08:06;6.20;99.90
1468;DHT22;727;48.892;9.544;2022-11-20T07:10:33;6.30;99.90
1468;DHT22;727;48.892;9.544;2022-11-20T07:13:00;6.30;99.90
1468;DHT22;727;48.892;9.544;2022-11-20T07:15:28;6.30;99.90
1468;DHT22;727;48.892;9.544;2022-11-20T07:17:55;6.30;99.90
1468;DHT22;727;48.892;9.544;2022-11-20T07:20:24;6.30;99.90
1468;DHT22;727;48.892;9.544;2022-11-20T07:22:53;6.30;99.90
1468;DHT22;727;48.892;9.544;2022-11-20T07:25:20;6.40;99.90
1468;DHT22;727;48.892;9.544;2022-11-20T07:27:47;6.40;99.90
1468;DHT22;727;48.892;9.544;2022-11-20T07:30:14;6.40;99.90
1468;DHT22;727;48.892;9.544;2022-11-20T07:32:42;6.40;99.90
1468;DHT22;727;48.892;9.544;2022-11-20T07:35:09;6.40;99.90
1468;DHT22;727;48.892;9.544;2022-11-20T07:37:35;6.40;99.90
1468;DHT22;727;48.892;9.544;2022-11-20T07:40:02;6.50;99.90
1468;DHT22;727;48.892;9.544;2022-11-20T07:42:29;6.50;99.90
1468;DHT22;727;48.892;9.544;2022-11-20T07:44:56;6.50;99.90
1468;DHT22;727;48.892;9.544;2022-11-20T07:47:23;6.50;99.90
1468;DHT22;727;48.892;9.544;2022-11-20T07:49:51;6.60;99.90
1468;DHT22;727;48.892;9.544;2022-11-20T07:52:18;6.70;99.90
1468;DHT22;727;48.892;9.544;2022-11-20T07:54:45;6.70;99.90
1468;DHT22;727;48.892;9.544;2022-11-20T07:57:11;6.70;99.90
1468;DHT22;727;48.892;9.544;2022-11-20T07:59:38;6.80;99.90
1468;DHT22;727;48.892;9.544;2022-11-20T08:02:05;6.90;99.90
1468;DHT22;727;48.892;9.544;2022-11-20T08:04:32;6.90;99.90
1468;DHT22;727;48.892;9.544;2022-11-20T08:07:00;6.90;99.90
1468;DHT22;727;48.892;9.544;2022-11-20T08:09:26;7.00;99.90
1468;DHT22;727;48.892;9.544;2022-11-20T08:11:54;7.00;99.90
1468;DHT22;727;48.892;9.544;2022-11-20T08:14:38;7.00;99.90
1468;DHT22;727;48.892;9.544;2022-11-20T08:17:04;7.00;99.90
1468;DHT22;727;48.892;9.544;2022-11-20T08:19:31;6.90;99.90
1468;DHT22;727;48.892;9.544;2022-11-20T08:21:59;6.90;99.90
1468;DHT22;727;48.892;9.544;2022-11-20T08:24:26;7.00;99.90
1468;DHT22;727;48.892;9.544;2022-11-20T08:26:53;7.00;99.90
1468;DHT22;727;48.892;9.544;2022-11-20T08:29:19;6.90;99.90
1468;DHT22;727;48.892;9.544;2022-11-20T08:31:46;6.90;99.90
1468;DHT22;727;48.892;9.544;2022-11-20T08:34:13;6.90;99.90
1468;DHT22;727;48.892;9.544;2022-11-20T08:36:40;7.00;99.90
1468;DHT22;727;48.892;9.544;2022-11-20T08:39:11;7.00;99.90
1468;DHT22;727;48.892;9.544;2022-11-20T08:41:38;7.00;99.90
1468;DHT22;727;48.892;9.544;2022-11-20T08:44:06;7.00;99.90
1468;DHT22;727;48.892;9.544;2022-11-20T08:46:35;7.00;99.90
1468;DHT22;727;48.892;9.544;2022-11-20T08:49:03;7.00;99.90
1468;DHT22;727;48.892;9.544;2022-11-20T08:51:30;7.00;99.90
1468;DHT22;727;48.892;9.544;2022-11-20T08:53:56;7.00;99.90
1468;DHT22;727;48.892;9.544;2022-11-20T08:56:24;7.10;99.90
1468;DHT22;727;48.892;9.544;2022-11-20T08:58:51;7.10;99.90
1468;DHT22;727;48.892;9.544;2022-11-20T09:01:18;7.10;99.90
1468;DHT22;727;48.892;9.544;2022-11-20T09:03:45;7.10;99.90
1468;DHT22;727;48.892;9.544;2022-11-20T09:06:13;7.10;99.90
1468;DHT22;727;48.892;9.544;2022-11-20T09:08:39;7.10;99.90
1468;DHT22;727;48.892;9.544;2022-11-20T09:11:07;7.10;99.90
1468;DHT22;727;48.892;9.544;2022-11-20T09:13:36;7.10;99.90
1468;DHT22;727;48.892;9.544;2022-11-20T09:16:05;7.10;99.90
1468;DHT22;727;48.892;9.544;2022-11-20T09:18:32;7.20;99.90
1468;DHT22;727;48.892;9.544;2022-11-20T09:21:03;7.20;99.90
1468;DHT22;727;48.892;9.544;2022-11-20T09:23:33;7.20;99.90
1468;DHT22;727;48.892;9.544;2022-11-20T09:26:02;7.20;99.90
1468;DHT22;727;48.892;9.544;2022-11-20T09:28:29;7.20;99.90
1468;DHT22;727;48.892;9.544;2022-11-20T09:30:58;7.10;99.90
1468;DHT22;727;48.892;9.544;2022-11-20T09:33:24;7.20;99.90
1468;DHT22;727;48.892;9.544;2022-11-20T09:35:51;7.20;99.90
1468;DHT22;727;48.892;9.544;2022-11-20T09:38:18;7.20;99.90
1468;DHT22;727;48.892;9.544;2022-11-20T09:40:49;7.30;99.90
1468;DHT22;727;48.892;9.544;2022-11-20T09:43:22;7.30;99.90
1468;DHT22;727;48.892;9.544;2022-11-20T09:46:03;7.30;99.90
1468;DHT22;727;48.892;9.544;2022-11-20T09:48:41;7.30;99.90
1468;DHT22;727;48.892;9.544;2022-11-20T09:51:16;7.30;99.90
1468;DHT22;727;48.892;9.544;2022-11-20T09:53:59;7.20;99.90
1468;DHT22;727;48.892;9.544;2022-11-20T09:56:30;7.20;99.90
1468;DHT22;727;48.892;9.544;2022-11-20T09:59:02;7.20;99.90
1468;DHT22;727;48.892;9.544;2022-11-20T10:01:36;7.20;99.90
1468;DHT22;727;48.892;9.544;2022-11-20T10:04:11;7.20;99.90
1468;DHT22;727;48.892;9.544;2022-11-20T10:06:44;7.20;99.90
1468;DHT22;727;48.892;9.544;2022-11-20T10:09:18;7.20;99.90
1468;DHT22;727;48.892;9.544;2022-11-20T10:11:58;7.20;99.90
1468;DHT22;727;48.892;9.544;2022-11-20T10:14:33;7.20;99.90
1468;DHT22;727;48.892;9.544;2022-11-20T10:17:16;7.20;99.90
1468;DHT22;727;48.892;9.544;2022-11-20T10:19:56;7.30;99.90
1468;DHT22;727;48.892;9.544;2022-11-20T10:22:37;7.30;99.90
1468;DHT22;727;48.892;9.544;2022-11-20T10:25:14;7.40;99.90
1468;DHT22;727;48.892;9.544;2022-11-20T10:28:10;7.40;99.90
1468;DHT22;727;48.892;9.544;2022-11-20T10:30:42;7.50;99.90
1468;DHT22;727;48.892;9.544;2022-11-20T10:33:15;7.40;99.90
1468;DHT22;727;48.892;9.544;2022-11-20T10:35:45;7.40;99.90
1468;DHT22;727;48.892;9.544;2022-11-20T10:38:20;7.40;99.90
1468;DHT22;727;48.892;9.544;2022-11-20T10:40:50;7.50;99.90
1468;DHT22;727;48.892;9.544;2022-11-20T10:43:21;7.50;99.90
1468;DHT22;727;48.892;9.544;2022-11-20T10:45:53;7.50;99.90
1468;DHT22;727;48.892;9.544;2022-11-20T10:48:25;7.60;99.90
1468;DHT22;727;48.892;9.544;2022-11-20T10:51:01;7.50;99.90
1468;DHT22;727;48.892;9.544;2022-11-20T10:53:51;7.50;99.90
1468;DHT22;727;48.892;9.544;2022-11-20T10:56:24;7.50;99.90
1468;DHT22;727;48.892;9.544;2022-11-20T10:59:19;7.60;99.90
1468;DHT22;727;48.892;9.544;2022-11-20T11:01:51;7.60;99.90
1468;DHT22;727;48.892;9.544;2022-11-20T11:04:30;7.70;99.90
1468;DHT22;727;48.892;9.544;2022-11-20T11:07:06;7.70;99.90
1468;DHT22;727;48.892;9.544;2022-11-20T11:09:38;7.70;99.90
1468;DHT22;727;48.892;9.544;2022-11-20T11:12:07;7.80;99.90
1468;DHT22;727;48.892;9.544;2022-11-20T11:14:42;7.80;99.90
1468;DHT22;727;48.892;9.544;2022-11-20T11:17:20;7.80;99.90
1468;DHT22;727;48.892;9.544;2022-11-20T11:19:58;7.80;99.90
1468;DHT22;727;48.892;9.544;2022-11-20T11:22:29;7.80;99.90
1468;DHT22;727;48.892;9.544;2022-11-20T11:24:56;7.80;99.90
1468;DHT22;727;48.892;9.544;2022-11-20T11:27:24;7.80;99.90
1468;DHT22;727;48.892;9.544;2022-11-20T11:30:02;7.80;99.90
1468;DHT22;727;48.892;9.544;2022-11-20T11:32:30;7.80;99.90
1468;DHT22;727;48.892;9.544;2022-11-20T11:35:04;7.80;99.90
1468;DHT22;727;48.892;9.544;2022-11-20T11:37:34;7.80;99.90
1468;DHT22;727;48.892;9.544;2022-11-20T11:40:02;7.90;99.90
1468;DHT22;727;48.892;9.544;2022-11-20T11:42:29;7.90;99.90
1468;DHT22;727;48.892;9.544;2022-11-20T11:44:58;8.00;99.90
1468;DHT22;727;48.892;9.544;2022-11-20T11:47:32;8.00;99.90
1468;DHT22;727;48.892;9.544;2022-11-20T11:50:17;8.00;99.90
1468;DHT22;727;48.892;9.544;2022-11-20T11:52:48;8.00;99.90
1468;DHT22;727;48.892;9.544;2022-11-20T11:55:20;8.00;99.90
1468;DHT22;727;48.892;9.544;2022-11-20T11:57:55;8.20;99.90
1468;DHT22;727;48.892;9.544;2022-11-20T12:00:24;8.40;99.90
1468;DHT22;727;48.892;9.544;2022-11-20T12:03:00;8.80;99.90
1468;DHT22;727;48.892;9.544;2022-11-20T12:05:36;9.10;99.90
1468;DHT22;727;48.892;9.544;2022-11-20T12:08:12;9.50;99.90
1468;DHT22;727;48.892;9.544;2022-11-20T12:10:45;10.70;99.90
1468;DHT22;727;48.892;9.544;2022-11-20T12:13:20;13.00;99.90
1468;DHT22;727;48.892;9.544;2022-11-20T12:15:48;14.20;99.30
1468;DHT22;727;48.892;9.544;2022-11-20T12:18:18;13.80;97.40
1468;DHT22;727;48.892;9.544;2022-11-20T12:20:55;12.90;98.60
1468;DHT22;727;48.892;9.544;2022-11-20T12:23:28;12.00;99.90
1468;DHT22;727;48.892;9.544;2022-11-20T12:26:00;11.30;99.90
1468;DHT22;727;48.892;9.544;2022-11-20T12:28:56;11.30;99.90
1468;DHT22;727;48.892;9.544;2022-11-20T12:31:57;11.50;99.90
1468;DHT22;727;48.892;9.544;2022-11-20T12:34:56;11.20;99.90
1468;DHT22;727;48.892;9.544;2022-11-20T12:37:37;10.50;99.90
1468;DHT22;727;48.892;9.544;2022-11-20T12:40:21;10.10;99.90
1468;DHT22;727;48.892;9.544;2022-11-20T12:42:59;9.90;99.90
1468;DHT22;727;48.892;9.544;2022-11-20T12:45:57;9.80;99.90
1468;DHT22;727;48.892;9.544;2022-11-20T12:48:38;9.90;99.90
1468;DHT22;727;48.892;9.544;2022-11-20T12:51:27;10.60;99.90
1468;DHT22;727;48.892;9.544;2022-11-20T12:54:11;10.80;99.90
1468;DHT22;727;48.892;9.544;2022-11-20T12:56:49;10.80;99.90
1468;DHT22;727;48.892;9.544;2022-11-20T12:59:28;10.80;99.90
1468;DHT22;727;48.892;9.544;2022-11-20T13:02:13;10.90;99.90
1468;DHT22;727;48.892;9.544;2022-11-20T13:05:01;11.50;99.90
1468;DHT22;727;48.892;9.544;2022-11-20T13:07:30;11.70;99.90
1468;DHT22;727;48.892;9.544;2022-11-20T13:10:00;11.50;99.90
1468;DHT22;727;48.892;9.544;2022-11-20T13:12:33;11.30;99.90
1468;DHT22;727;48.892;9.544;2022-11-20T13:15:07;11.10;99.90
1468;DHT22;727;48.892;9.544;2022-11-20T13:17:41;10.90;99.90
1468;DHT22;727;48.892;9.544;2022-11-20T13:20:14;10.70;99.90
1468;DHT22;727;48.892;9.544;2022-11-20T13:22:44;11.40;99.90
1468;DHT22;727;48.892;9.544;2022-11-20T13:25:22;13.00;99.90
1468;DHT22;727;48.892;9.544;2022-11-20T13:27:49;14.60;97.80
1468;DHT22;727;48.892;9.544;2022-11-20T13:30:18;15.80;93.40
1468;DHT22;727;48.892;9.544;2022-11-20T13:32:53;16.20;90.40
1468;DHT22;727;48.892;9.544;2022-11-20T13:35:29;16.10;83.40
1468;DHT22;727;48.892;9.544;2022-11-20T13:38:00;15.70;83.30
1468;DHT22;727;48.892;9.544;2022-11-20T13:40:29;14.80;82.90
1468;DHT22;727;48.892;9.544;2022-11-20T13:43:01;13.50;87.50
1468;DHT22;727;48.892;9.544;2022-11-20T13:45:30;12.50;90.80
1468;DHT22;727;48.892;9.544;2022-11-20T13:47:57;11.80;91.60
1468;DHT22;727;48.892;9.544;2022-11-20T13:50:40;11.20;92.70
1468;DHT22;727;48.892;9.544;2022-11-20T13:53:20;10.80;94.40
1468;DHT22;727;48.892;9.544;2022-11-20T13:55:54;10.40;95.10
1468;DHT22;727;48.892;9.544;2022-11-20T13:58:30;10.00;95.70
1468;DHT22;727;48.892;9.544;2022-11-20T14:01:08;9.80;97.80
1468;DHT22;727;48.892;9.544;2022-11-20T14:03:36;9.80;97.90
1468;DHT22;727;48.892;9.544;2022-11-20T14:06:10;10.00;97.50
1468;DHT22;727;48.892;9.544;2022-11-20T14:08:40;10.20;97.30
1468;DHT22;727;48.892;9.544;2022-11-20T14:11:15;10.40;96.00
1468;DHT22;727;48.892;9.544;2022-11-20T14:13:54;10.30;96.60
1468;DHT22;727;48.892;9.544;2022-11-20T14:16:22;10.10;96.30
1468;DHT22;727;48.892;9.544;2022-11-20T14:18:49;10.00;97.00
1468;DHT22;727;48.892;9.544;2022-11-20T14:21:22;9.80;98.50
1468;DHT22;727;48.892;9.544;2022-11-20T14:23:52;9.70;99.30
1468;DHT22;727;48.892;9.544;2022-11-20T14:26:20;9.50;99.90
1468;DHT22;727;48.892;9.544;2022-11-20T14:28:49;9.40;99.90
1468;DHT22;727;48.892;9.544;2022-11-20T14:31:23;9.30;99.90
1468;DHT22;727;48.892;9.544;2022-11-20T14:33:50;9.20;99.90
1468;DHT22;727;48.892;9.544;2022-11-20T14:36:20;9.10;99.90
1468;DHT22;727;48.892;9.544;2022-11-20T14:38:47;9.00;99.90
1468;DHT22;727;48.892;9.544;2022-11-20T14:41:17;9.00;99.90
1468;DHT22;727;48.892;9.544;2022-11-20T14:43:47;9.10;99.90
1468;DHT22;727;48.892;9.544;2022-11-20T14:46:16;9.00;99.90
1468;DHT22;727;48.892;9.544;2022-11-20T14:48:46;8.90;99.90
1468;DHT22;727;48.892;9.544;2022-11-20T14:51:26;8.90;99.90
1468;DHT22;727;48.892;9.544;2022-11-20T14:53:53;8.80;99.90
1468;DHT22;727;48.892;9.544;2022-11-20T14:56:22;8.70;99.90
1468;DHT22;727;48.892;9.544;2022-11-20T14:58:57;8.60;99.90
1468;DHT22;727;48.892;9.544;2022-11-20T15:01:28;8.50;99.90
1468;DHT22;727;48.892;9.544;2022-11-20T15:04:05;8.40;99.90
1468;DHT22;727;48.892;9.544;2022-11-20T15:06:32;8.30;99.90
1468;DHT22;727;48.892;9.544;2022-11-20T15:08:59;8.20;99.90
1468;DHT22;727;48.892;9.544;2022-11-20T15:11:30;8.10;99.90
1468;DHT22;727;48.892;9.544;2022-11-20T15:14:02;8.00;99.90
1468;DHT22;727;48.892;9.544;2022-11-20T15:16:30;7.90;99.90
1468;DHT22;727;48.892;9.544;2022-11-20T15:18:58;7.70;99.90
1468;DHT22;727;48.892;9.544;2022-11-20T15:21:26;7.60;99.90
1468;DHT22;727;48.892;9.544;2022-11-20T15:23:53;7.40;99.90
1468;DHT22;727;48.892;9.544;2022-11-20T15:26:23;7.30;99.90
1468;DHT22;727;48.892;9.544;2022-11-20T15:28:51;7.10;99.90
1468;DHT22;727;48.892;9.544;2022-11-20T15:31:21;7.00;99.90
1468;DHT22;727;48.892;9.544;2022-11-20T15:33:49;6.90;99.90
1468;DHT22;727;48.892;9.544;2022-11-20T15:36:16;6.70;99.90
1468;DHT22;727;48.892;9.544;2022-11-20T15:38:42;6.70;99.90
1468;DHT22;727;48.892;9.544;2022-11-20T15:41:09;6.60;99.90
1468;DHT22;727;48.892;9.544;2022-11-20T15:43:36;6.50;99.90
1468;DHT22;727;48.892;9.544;2022-11-20T15:46:06;6.30;99.90
1468;DHT22;727;48.892;9.544;2022-11-20T15:48:37;6.20;99.90
1468;DHT22;727;48.892;9.544;2022-11-20T15:51:12;6.10;99.90
1468;DHT22;727;48.892;9.544;2022-11-20T15:53:43;6.00;99.90
1468;DHT22;727;48.892;9.544;2022-11-20T15:56:12;5.90;99.90
1468;DHT22;727;48.892;9.544;2022-11-20T15:58:39;5.80;99.90
1468;DHT22;727;48.892;9.544;2022-11-20T16:01:08;5.70;99.90
1468;DHT22;727;48.892;9.544;2022-11-20T16:03:37;5.60;99.90
1468;DHT22;727;48.892;9.544;2022-11-20T16:06:04;5.50;99.90
1468;DHT22;727;48.892;9.544;2022-11-20T16:08:30;5.40;99.90
1468;DHT22;727;48.892;9.544;2022-11-20T16:10:57;5.30;99.90
1468;DHT22;727;48.892;9.544;2022-11-20T16:13:24;5.20;99.90
1468;DHT22;727;48.892;9.544;2022-11-20T16:16:14;5.20;99.90
1468;DHT22;727;48.892;9.544;2022-11-20T16:18:46;5.10;99.90
1468;DHT22;727;48.892;9.544;2022-11-20T16:21:13;5.00;99.90
1468;DHT22;727;48.892;9.544;2022-11-20T16:23:40;5.00;99.90
1468;DHT22;727;48.892;9.544;2022-11-20T16:26:11;5.00;99.90
1468;DHT22;727;48.892;9.544;2022-11-20T16:28:38;5.00;99.90
1468;DHT22;727;48.892;9.544;2022-11-20T16:31:09;4.90;99.90
1468;DHT22;727;48.892;9.544;2022-11-20T16:33:35;4.90;99.90
1468;DHT22;727;48.892;9.544;2022-11-20T16:36:08;4.90;99.90
1468;DHT22;727;48.892;9.544;2022-11-20T16:38:35;4.90;99.90
1468;DHT22;727;48.892;9.544;2022-11-20T16:41:03;4.90;99.90
1468;DHT22;727;48.892;9.544;2022-11-20T16:43:30;4.90;99.90
1468;DHT22;727;48.892;9.544;2022-11-20T16:45:56;4.90;99.90
1468;DHT22;727;48.892;9.544;2022-11-20T16:48:23;4.90;99.90
1468;DHT22;727;48.892;9.544;2022-11-20T16:50:51;4.90;99.90